Time;durP1;ratioP1;P1;durP2;ratioP2;P2;SDS_P1;SDS_P2;PMS_P1;PMS_P2;Temp;Humidity;BMP_temperature;BMP_pressure;BME280_temperature;BME280_humidity;BME280_pressure;Samples;Min_cycle;Max_cycle;Signal;HPM_P1;HPM_P2
2023/11/18 00:00:55;;;;;;;0.40;0.40;;;;;;;10.41;100.00;95959.69;5043635;28;20087;-60
2023/11/18 00:03:22;;;;;;;0.40;0.40;;;;;;;10.31;100.00;95966.00;5025458;28;20341;-58
2023/11/18 00:05:49;;;;;;;0.50;0.50;;;;;;;10.19;100.00;95955.34;5026008;28;20072;-60
2023/11/18 00:08:16;;;;;;;0.50;0.50;;;;;;;9.93;100.00;95936.28;5029821;28;20049;-60
2023/11/18 00:10:42;;;;;;;0.50;0.50;;;;;;;9.94;100.00;95948.94;5043834;28;20614;-59
2023/11/18 00:13:09;;;;;;;0.40;0.40;;;;;;;9.86;100.00;95957.63;5042243;28;20140;-58
2023/11/18 00:15:36;;;;;;;0.50;0.50;;;;;;;9.63;100.00;95933.06;5043584;28;20573;-60
2023/11/18 00:18:03;;;;;;;0.50;0.50;;;;;;;9.60;100.00;95961.50;5043906;28;20064;-59
2023/11/18 00:20:30;;;;;;;0.40;0.40;;;;;;;9.61;100.00;95952.00;5043637;28;20229;-60
2023/11/18 00:22:58;;;;;;;0.40;0.40;;;;;;;9.57;100.00;95948.47;5043609;28;20053;-60
2023/11/18 00:25:24;;;;;;;0.40;0.40;;;;;;;9.58;100.00;95947.28;5043482;28;20048;-59
2023/11/18 00:27:51;;;;;;;0.40;0.40;;;;;;;9.68;100.00;95954.81;5041845;28;20049;-61
2023/11/18 00:30:18;;;;;;;0.40;0.40;;;;;;;9.72;100.00;95961.13;5043191;28;20072;-60
2023/11/18 00:32:45;;;;;;;0.40;0.40;;;;;;;9.79;100.00;95958.41;5043382;28;20048;-60
2023/11/18 00:35:12;;;;;;;0.40;0.40;;;;;;;9.83;100.00;95981.31;5041966;28;20470;-60
2023/11/18 00:37:39;;;;;;;0.47;0.47;;;;;;;10.00;100.00;95985.31;5043093;28;20522;-62
2023/11/18 00:40:11;;;;;;;0.40;0.40;;;;;;;9.62;100.00;95947.28;5043787;28;20049;-61
2023/11/18 00:42:40;;;;;;;0.40;0.40;;;;;;;9.69;100.00;95948.09;5043408;28;20134;-60
2023/11/18 00:45:07;;;;;;;0.40;0.40;;;;;;;10.00;100.00;95977.00;5046669;28;20045;-61
2023/11/18 00:47:34;;;;;;;0.50;0.50;;;;;;;9.97;100.00;95970.31;5047299;28;20140;-60
2023/11/18 00:50:02;;;;;;;0.40;0.40;;;;;;;10.03;100.00;95963.19;5046657;28;20447;-61
2023/11/18 00:52:29;;;;;;;0.40;0.40;;;;;;;9.80;100.00;95910.19;5047156;28;20755;-59
2023/11/18 00:54:56;;;;;;;0.40;0.40;;;;;;;10.06;100.00;95943.03;5045608;28;20060;-59
2023/11/18 00:57:22;;;;;;;0.50;0.50;;;;;;;10.04;100.00;95942.63;5045399;28;20045;-60
2023/11/18 00:59:49;;;;;;;0.40;0.40;;;;;;;10.07;100.00;95930.81;5046510;28;20516;-60
2023/11/18 01:02:17;;;;;;;0.40;0.40;;;;;;;9.95;100.00;95928.41;5044967;28;20131;-60
2023/11/18 01:04:48;;;;;;;0.50;0.50;;;;;;;9.95;100.00;95942.25;5046768;28;20511;-60
2023/11/18 01:07:14;;;;;;;0.40;0.40;;;;;;;9.89;100.00;95946.56;5046888;28;20506;-59
2023/11/18 01:09:42;;;;;;;0.50;0.50;;;;;;;9.46;100.00;95889.59;5046317;28;20048;-62
2023/11/18 01:12:09;;;;;;;0.45;0.45;;;;;;;9.88;100.00;95942.22;5046603;28;20049;-60
2023/11/18 01:14:37;;;;;;;0.40;0.40;;;;;;;9.62;100.00;95881.75;5063618;28;20055;-60
2023/11/18 01:17:06;;;;;;;0.40;0.40;;;;;;;9.93;100.00;95925.22;5048707;28;20056;-60
2023/11/18 01:19:36;;;;;;;0.50;0.50;;;;;;;9.82;100.00;95918.09;5066663;28;20049;-59
2023/11/18 01:22:05;;;;;;;0.40;0.40;;;;;;;9.62;100.00;95934.25;5066418;28;20048;-62
2023/11/18 01:24:33;;;;;;;0.43;0.43;;;;;;;9.52;100.00;95921.19;5065395;28;20045;-61
2023/11/18 01:27:00;;;;;;;0.40;0.40;;;;;;;9.64;100.00;95940.19;5066277;28;20470;-60
2023/11/18 01:29:27;;;;;;;0.40;0.40;;;;;;;9.51;100.00;95911.34;5066643;28;20515;-59
2023/11/18 01:31:55;;;;;;;0.40;0.40;;;;;;;9.71;100.00;95929.16;5048210;28;20593;-60
2023/11/18 01:34:23;;;;;;;0.50;0.50;;;;;;;9.51;100.00;95872.63;5066505;28;20060;-59
2023/11/18 01:36:50;;;;;;;0.50;0.50;;;;;;;9.90;100.00;95920.50;5066129;28;20076;-60
2023/11/18 01:39:20;;;;;;;0.50;0.50;;;;;;;9.86;100.00;95914.19;5048233;28;20086;-60
2023/11/18 01:41:48;;;;;;;0.40;0.40;;;;;;;9.56;100.00;95872.25;5066234;28;20080;-60
2023/11/18 01:44:15;;;;;;;0.40;0.40;;;;;;;9.75;100.00;95902.31;5060840;28;20056;-60
2023/11/18 01:46:45;;;;;;;0.50;0.50;;;;;;;9.76;100.00;95959.19;5045854;28;20067;-60
2023/11/18 01:49:13;;;;;;;0.40;0.40;;;;;;;9.67;100.00;95925.59;5046299;28;20057;-59
2023/11/18 01:51:43;;;;;;;0.40;0.40;;;;;;;9.62;100.00;95912.16;5046074;28;20052;-61
2023/11/18 01:54:14;;;;;;;0.50;0.50;;;;;;;9.73;100.00;95937.03;5046043;28;20060;-60
2023/11/18 01:56:47;;;;;;;0.50;0.50;;;;;;;9.56;100.00;95921.22;5043929;28;20091;-61
2023/11/18 01:59:20;;;;;;;0.50;0.50;;;;;;;8.98;100.00;95838.53;5046058;28;20056;-61
2023/11/18 02:01:49;;;;;;;0.40;0.40;;;;;;;9.29;100.00;95900.59;5045512;28;20045;-60
2023/11/18 02:04:19;;;;;;;0.50;0.50;;;;;;;9.46;100.00;95922.75;5044287;28;20076;-60
2023/11/18 02:06:50;;;;;;;0.50;0.50;;;;;;;9.40;100.00;95910.50;5045328;28;20065;-60
2023/11/18 02:09:28;;;;;;;0.45;0.45;;;;;;;9.56;100.00;95938.59;5058645;28;20079;-61
2023/11/18 02:12:16;;;;;;;0.40;0.40;;;;;;;9.63;100.00;95932.28;5047711;28;20080;-61
2023/11/18 02:14:44;;;;;;;0.40;0.40;;;;;;;9.61;100.00;95935.44;5065249;28;20072;-60
2023/11/18 02:17:14;;;;;;;0.50;0.50;;;;;;;9.34;100.00;95920.38;5065354;28;20053;-60
2023/11/18 02:19:42;;;;;;;0.40;0.40;;;;;;;9.10;100.00;95894.19;5065188;28;20048;-60
2023/11/18 02:22:11;;;;;;;0.40;0.40;;;;;;;9.43;100.00;95918.03;5047105;28;20553;-60
2023/11/18 02:24:40;;;;;;;0.40;0.40;;;;;;;9.43;100.00;95915.25;5065212;28;20071;-60
2023/11/18 02:27:07;;;;;;;0.40;0.40;;;;;;;9.18;100.00;95856.38;5064660;28;20045;-60
2023/11/18 02:29:40;;;;;;;0.47;0.47;;;;;;;9.54;100.00;95921.59;5064687;28;20515;-61
2023/11/18 02:32:32;;;;;;;0.40;0.40;;;;;;;9.48;100.00;95906.59;5064773;28;20553;-63
2023/11/18 02:35:15;;;;;;;0.40;0.40;;;;;;;9.41;100.00;95908.53;5064674;28;20131;-62
2023/11/18 02:37:49;;;;;;;0.40;0.40;;;;;;;9.24;100.00;95896.25;5064728;28;20056;-61
2023/11/18 02:40:25;;;;;;;0.40;0.40;;;;;;;9.25;100.00;95888.75;5064915;28;20063;-61
2023/11/18 02:42:55;;;;;;;0.50;0.50;;;;;;;9.16;100.00;95900.16;5047110;28;20580;-60
2023/11/18 02:45:23;;;;;;;0.50;0.50;;;;;;;9.19;100.00;95889.13;5047332;28;20048;-62
2023/11/18 02:47:50;;;;;;;0.40;0.40;;;;;;;9.19;100.00;95885.56;5065123;28;20052;-61
2023/11/18 02:50:19;;;;;;;0.40;0.40;;;;;;;9.11;100.00;95872.91;5046805;28;20052;-61
2023/11/18 02:52:45;;;;;;;0.40;0.40;;;;;;;9.26;98.59;95896.66;5046505;28;20570;-61
2023/11/18 02:55:12;;;;;;;0.40;0.40;;;;;;;9.24;97.97;95904.53;5046847;28;20060;-62
2023/11/18 02:57:39;;;;;;;0.40;0.40;;;;;;;9.17;98.35;95888.72;5064492;28;20051;-60
2023/11/18 03:00:11;;;;;;;0.40;0.40;;;;;;;9.23;97.43;95902.16;5064402;28;20539;-61
2023/11/18 03:02:39;;;;;;;0.40;0.40;;;;;;;9.21;95.02;95894.25;5064380;28;20549;-61
2023/11/18 03:05:07;;;;;;;0.50;0.50;;;;;;;9.12;95.30;95891.06;5064587;28;20293;-61
2023/11/18 03:07:34;;;;;;;0.40;0.40;;;;;;;9.09;95.54;95889.06;5063262;28;20067;-62
2023/11/18 03:10:01;;;;;;;0.40;0.40;;;;;;;9.07;94.90;95894.22;5045475;28;20056;-63
2023/11/18 03:12:27;;;;;;;0.40;0.40;;;;;;;8.47;95.07;95788.25;5044012;28;20082;-61
2023/11/18 03:14:55;;;;;;;0.43;0.43;;;;;;;9.09;95.77;95889.88;5042327;28;20056;-61
2023/11/18 03:17:23;;;;;;;0.40;0.40;;;;;;;9.09;96.17;95886.31;5044385;28;20418;-61
2023/11/18 03:19:50;;;;;;;0.50;0.50;;;;;;;9.09;96.43;95894.59;5044419;28;20124;-61
2023/11/18 03:22:17;;;;;;;0.40;0.40;;;;;;;8.51;95.21;95795.34;5044021;28;20064;-61
2023/11/18 03:24:44;;;;;;;0.40;0.40;;;;;;;9.12;94.52;95888.28;5044297;28;20055;-62
2023/11/18 03:27:10;;;;;;;0.40;0.40;;;;;;;8.77;93.90;95847.50;5044838;28;20170;-60
2023/11/18 03:29:37;;;;;;;0.40;0.40;;;;;;;8.95;95.28;95886.25;5044525;28;20211;-61
2023/11/18 03:32:05;;;;;;;0.40;0.40;;;;;;;8.48;94.75;95833.97;5042338;28;20080;-62
2023/11/18 03:34:32;;;;;;;0.40;0.40;;;;;;;8.99;94.55;95893.38;5042451;28;20049;-61
2023/11/18 03:36:59;;;;;;;0.40;0.40;;;;;;;9.02;93.16;95886.28;5043855;28;20055;-61
2023/11/18 03:39:27;;;;;;;0.40;0.40;;;;;;;9.04;90.88;95884.72;5044409;28;20135;-61
2023/11/18 03:41:57;;;;;;;0.40;0.40;;;;;;;8.94;90.07;95882.72;5043735;28;20094;-61
2023/11/18 03:44:24;;;;;;;0.40;0.40;;;;;;;8.89;90.68;95865.72;5044433;28;20370;-61
2023/11/18 03:46:50;;;;;;;0.50;0.50;;;;;;;8.90;91.71;95850.72;5043916;28;20048;-62
2023/11/18 03:49:17;;;;;;;0.40;0.40;;;;;;;8.66;91.79;95829.34;5044114;28;20343;-60
2023/11/18 03:51:44;;;;;;;0.40;0.40;;;;;;;8.49;90.25;95785.88;5043939;28;20057;-61
2023/11/18 03:54:12;;;;;;;0.40;0.40;;;;;;;8.78;90.60;95854.63;5043869;28;20063;-62
2023/11/18 03:56:39;;;;;;;0.50;0.50;;;;;;;8.76;89.97;95850.66;5043695;28;20057;-61
2023/11/18 03:59:06;;;;;;;0.40;0.40;;;;;;;7.76;90.66;95703.53;5043858;28;20049;-61
2023/11/18 04:01:32;;;;;;;0.40;0.40;;;;;;;8.75;88.95;95860.13;5043545;28;20061;-61
2023/11/18 04:03:59;;;;;;;0.40;0.40;;;;;;;8.80;88.06;95860.53;5042381;28;20082;-61
2023/11/18 04:06:26;;;;;;;0.40;0.40;;;;;;;8.86;88.18;95861.78;5044135;28;20049;-63
2023/11/18 04:08:53;;;;;;;0.43;0.43;;;;;;;8.92;90.02;95854.69;5043357;28;20052;-60
2023/11/18 04:11:20;;;;;;;0.40;0.40;;;;;;;8.65;91.57;95811.19;5043318;28;20049;-61
2023/11/18 04:13:46;;;;;;;0.40;0.40;;;;;;;8.90;89.91;95856.25;5053835;28;20449;-63
2023/11/18 04:16:18;;;;;;;0.40;0.40;;;;;;;8.76;89.01;95840.41;5037768;28;20049;-60
2023/11/18 04:18:46;;;;;;;0.40;0.40;;;;;;;8.75;88.25;95849.09;5044818;28;20053;-63
2023/11/18 04:21:13;;;;;;;0.40;0.40;;;;;;;8.82;89.09;95838.09;5046300;28;20509;-60
2023/11/18 04:23:41;;;;;;;0.40;0.40;;;;;;;8.84;89.68;95852.28;5047662;28;20044;-61
2023/11/18 04:26:09;;;;;;;0.40;0.40;;;;;;;8.82;88.17;95868.47;5047396;28;20114;-62
2023/11/18 04:28:36;;;;;;;0.40;0.40;;;;;;;8.79;84.22;95872.78;5047818;28;20602;-61
2023/11/18 04:31:05;;;;;;;0.40;0.40;;;;;;;8.78;84.32;95882.25;5029301;28;20134;-60
2023/11/18 04:33:33;;;;;;;0.40;0.40;;;;;;;8.63;86.48;95849.44;5047552;28;20053;-59
2023/11/18 04:36:00;;;;;;;0.40;0.40;;;;;;;8.74;87.71;95869.59;5029459;28;20111;-61
2023/11/18 04:38:27;;;;;;;0.40;0.40;;;;;;;8.70;84.71;95843.94;5047711;28;20060;-63
2023/11/18 04:40:54;;;;;;;0.40;0.40;;;;;;;8.65;76.19;95850.63;5047428;28;20128;-63
2023/11/18 04:43:22;;;;;;;0.40;0.40;;;;;;;9.03;77.14;95850.00;5028936;28;20060;-61
2023/11/18 04:46:05;;;;;;;0.40;0.40;;;;;;;6.99;73.20;95525.59;5047359;28;20056;-61
2023/11/18 04:48:33;;;;;;;0.40;0.40;;;;;;;6.78;74.38;95497.94;5029163;28;20547;-61
2023/11/18 04:51:00;;;;;;;0.50;0.50;;;;;;;9.15;76.88;95873.72;5046856;28;20080;-60
2023/11/18 04:53:27;;;;;;;0.43;0.43;;;;;;;8.89;72.69;95843.63;5046981;28;20060;-60
2023/11/18 04:55:54;;;;;;;0.40;0.40;;;;;;;8.73;74.35;95801.75;5047006;28;20049;-61
2023/11/18 04:58:21;;;;;;;0.50;0.50;;;;;;;9.28;76.16;95885.22;5047026;28;20487;-61
2023/11/18 05:00:48;;;;;;;0.50;0.50;;;;;;;9.24;77.86;95882.44;5028484;28;20059;-61
2023/11/18 05:03:18;;;;;;;0.40;0.40;;;;;;;9.38;78.85;95893.53;5047027;28;20064;-61
2023/11/18 05:05:45;;;;;;;0.45;0.45;;;;;;;9.37;79.55;95897.47;5046608;28;20064;-61
2023/11/18 05:08:19;;;;;;;0.40;0.40;;;;;;;9.11;68.24;95853.56;5049558;28;20068;-61
2023/11/18 05:10:48;;;;;;;0.40;0.40;;;;;;;8.72;61.71;95769.81;5067068;28;20075;-61
2023/11/18 05:13:18;;;;;;;0.40;0.40;;;;;;;9.29;69.17;95873.78;5066592;28;20078;-60
2023/11/18 05:15:46;;;;;;;0.50;0.50;;;;;;;9.34;62.97;95870.63;5066410;28;20048;-60
2023/11/18 05:18:14;;;;;;;0.50;0.50;;;;;;;9.27;65.14;95854.00;5066741;28;20400;-61
2023/11/18 05:20:42;;;;;;;0.40;0.40;;;;;;;9.24;61.77;95865.84;5048322;28;20507;-60
2023/11/18 05:23:12;;;;;;;0.40;0.40;;;;;;;9.11;61.13;95867.38;5066336;28;20518;-62
2023/11/18 05:25:43;;;;;;;0.40;0.40;;;;;;;8.99;62.02;95876.03;5066041;28;20048;-60
2023/11/18 05:28:11;;;;;;;0.40;0.40;;;;;;;8.94;63.13;95885.47;5066285;28;20110;-60
2023/11/18 05:30:41;;;;;;;0.40;0.40;;;;;;;9.00;63.10;95883.91;5064933;28;20084;-61
2023/11/18 05:33:08;;;;;;;0.40;0.40;;;;;;;8.93;64.18;95888.63;5066223;28;20052;-60
2023/11/18 05:35:35;;;;;;;0.40;0.40;;;;;;;8.56;65.49;95830.06;5065732;28;20056;-59
2023/11/18 05:38:06;;;;;;;0.47;0.47;;;;;;;9.13;67.53;95914.75;5066241;28;20143;-60
2023/11/18 05:40:35;;;;;;;0.40;0.40;;;;;;;8.89;69.47;95926.47;5046490;28;20102;-61
2023/11/18 05:43:06;;;;;;;0.45;0.45;;;;;;;8.83;69.81;95930.78;5064861;28;20059;-60
2023/11/18 05:45:55;;;;;;;0.50;0.50;;;;;;;8.91;70.83;95918.59;5047145;28;20059;-61
2023/11/18 05:48:19;;;;;;;0.40;0.40;;;;;;;9.05;69.98;95924.19;5064576;28;20044;-62
2023/11/18 05:50:46;;;;;;;0.40;0.40;;;;;;;8.61;72.46;95849.03;5046717;28;20558;-60
2023/11/18 05:53:14;;;;;;;0.43;0.43;;;;;;;9.20;71.79;95915.56;5064665;28;20079;-61
2023/11/18 05:55:41;;;;;;;0.47;0.47;;;;;;;9.24;70.58;95899.00;5048025;28;20393;-60
2023/11/18 05:58:08;;;;;;;0.40;0.40;;;;;;;9.34;70.42;95891.94;5065786;28;20136;-61
2023/11/18 06:00:35;;;;;;;0.40;0.40;;;;;;;9.14;68.51;95850.03;5047649;28;20175;-61
2023/11/18 06:03:07;;;;;;;0.40;0.40;;;;;;;8.63;68.51;95763.88;5065766;28;20082;-60
2023/11/18 06:05:34;;;;;;;0.40;0.40;;;;;;;9.44;68.75;95908.53;5065538;28;20071;-61
2023/11/18 06:08:02;;;;;;;0.50;0.50;;;;;;;9.35;67.06;95910.88;5064467;28;20396;-59
2023/11/18 06:10:31;;;;;;;0.40;0.40;;;;;;;9.27;67.79;95903.75;5045559;28;20428;-60
2023/11/18 06:12:58;;;;;;;0.40;0.40;;;;;;;8.82;68.51;95920.91;5027435;28;20686;-60
2023/11/18 06:15:25;;;;;;;0.40;0.40;;;;;;;8.99;68.32;95898.13;5045533;28;20126;-60
2023/11/18 06:17:51;;;;;;;0.40;0.40;;;;;;;8.92;69.27;95887.03;5044160;28;20049;-61
2023/11/18 06:20:20;;;;;;;0.40;0.40;;;;;;;9.04;70.84;95900.50;5045040;28;20052;-59
2023/11/18 06:22:46;;;;;;;0.40;0.40;;;;;;;9.01;71.14;95904.03;5045186;28;20135;-61
2023/11/18 06:25:13;;;;;;;0.40;0.40;;;;;;;9.12;71.89;95902.09;5042989;28;20478;-60
2023/11/18 06:27:40;;;;;;;0.40;0.40;;;;;;;9.12;69.47;95899.34;5045095;28;20480;-61
2023/11/18 06:30:07;;;;;;;0.40;0.40;;;;;;;9.10;69.12;95898.97;5043988;28;20053;-60
2023/11/18 06:32:34;;;;;;;0.40;0.40;;;;;;;9.13;67.46;95901.75;5045215;28;20056;-62
2023/11/18 06:35:01;;;;;;;0.40;0.40;;;;;;;8.59;66.15;95821.81;5060240;28;20049;-59
2023/11/18 06:37:32;;;;;;;0.40;0.40;;;;;;;9.26;64.19;95902.19;5043063;28;20131;-60
2023/11/18 06:39:59;;;;;;;0.50;0.50;;;;;;;9.34;64.45;95906.56;5044785;28;20053;-60
2023/11/18 06:42:26;;;;;;;0.50;0.50;;;;;;;9.28;62.74;95899.78;5044700;28;20041;-61
2023/11/18 06:44:53;;;;;;;0.40;0.40;;;;;;;9.42;57.87;95899.84;5043734;28;20080;-61
2023/11/18 06:47:20;;;;;;;0.50;0.50;;;;;;;9.43;59.19;95906.97;5044450;28;20055;-61
2023/11/18 06:49:52;;;;;;;0.40;0.40;;;;;;;9.46;58.65;95914.47;5044290;28;20136;-62
2023/11/18 06:52:18;;;;;;;0.40;0.40;;;;;;;9.28;57.88;95905.31;5042411;28;20177;-61
2023/11/18 06:54:45;;;;;;;0.40;0.40;;;;;;;8.94;57.83;95876.41;5043408;28;20136;-61
2023/11/18 06:57:12;;;;;;;0.40;0.40;;;;;;;8.90;57.08;95894.91;5042777;28;20126;-60
2023/11/18 06:59:39;;;;;;;0.40;0.40;;;;;;;9.05;57.12;95899.31;5044578;28;20069;-60
2023/11/18 07:02:06;;;;;;;0.40;0.40;;;;;;;9.17;56.96;95887.91;5042526;28;20128;-60
2023/11/18 07:04:57;;;;;;;0.40;0.40;;;;;;;9.29;57.45;95884.03;5045164;28;20515;-59
2023/11/18 07:07:28;;;;;;;0.40;0.40;;;;;;;8.79;56.89;95836.88;5038477;28;20072;-58
2023/11/18 07:09:55;;;;;;;0.40;0.40;;;;;;;8.43;58.07;95781.91;5041953;28;20638;-66
2023/11/18 07:12:22;;;;;;;0.40;0.40;;;;;;;8.69;57.05;95834.09;5038508;28;20423;-62
2023/11/18 07:14:49;;;;;;;0.40;0.40;;;;;;;8.23;55.72;95849.59;5041647;28;20053;-62
2023/11/18 07:17:18;;;;;;;0.40;0.40;;;;;;;8.76;56.44;95840.41;5041519;28;20061;-62
2023/11/18 07:19:45;;;;;;;0.40;0.40;;;;;;;8.64;57.24;95865.63;5045852;28;20059;-61
2023/11/18 07:22:12;;;;;;;0.40;0.40;;;;;;;8.50;57.38;95804.81;5031394;28;20420;-61
2023/11/18 07:24:39;;;;;;;0.40;0.40;;;;;;;9.03;57.29;95896.16;5038239;28;20531;-67
2023/11/18 07:27:05;;;;;;;0.40;0.40;;;;;;;8.37;56.71;95777.94;5040983;28;20053;-72
2023/11/18 07:29:32;;;;;;;0.40;0.40;;;;;;;7.90;56.63;95681.56;5039798;28;20068;-63
2023/11/18 07:32:01;;;;;;;0.50;0.50;;;;;;;9.43;55.69;95879.31;5041341;28;20805;-66
2023/11/18 07:34:28;;;;;;;0.40;0.40;;;;;;;9.55;55.46;95880.94;5023476;28;20993;-61
2023/11/18 07:36:55;;;;;;;0.40;0.40;;;;;;;9.62;55.41;95859.63;5038607;28;20136;-61
2023/11/18 07:39:29;;;;;;;0.40;0.40;;;;;;;9.55;54.33;95847.78;5041975;28;20053;-60
2023/11/18 07:41:59;;;;;;;0.40;0.40;;;;;;;9.82;55.04;95912.56;5043209;28;20608;-66
2023/11/18 07:44:25;;;;;;;0.40;0.40;;;;;;;9.81;54.55;95856.50;5041561;28;20571;-63
2023/11/18 07:46:52;;;;;;;0.50;0.50;;;;;;;9.82;53.90;95895.97;5042823;28;20056;-60
2023/11/18 07:49:19;;;;;;;0.40;0.40;;;;;;;9.03;53.78;95745.06;5043684;28;20049;-60
2023/11/18 07:51:45;;;;;;;0.40;0.40;;;;;;;9.81;54.50;95884.13;5042566;28;20116;-70
2023/11/18 07:54:12;;;;;;;0.40;0.40;;;;;;;9.89;57.59;95884.94;5042450;28;20328;-64
2023/11/18 07:56:41;;;;;;;0.40;0.40;;;;;;;9.43;56.16;95779.03;5040705;28;20057;-66
2023/11/18 07:59:08;;;;;;;0.50;0.50;;;;;;;10.04;56.17;95858.84;5041627;28;20060;-67
2023/11/18 08:01:35;;;;;;;0.40;0.40;;;;;;;10.50;55.34;95871.50;5042750;28;20049;-64
2023/11/18 08:04:06;;;;;;;0.40;0.40;;;;;;;10.37;53.88;95905.50;5041679;28;20147;-60
2023/11/18 08:06:33;;;;;;;0.47;0.47;;;;;;;10.58;54.61;95867.53;5041775;28;20086;-59
2023/11/18 08:09:00;;;;;;;0.45;0.45;;;;;;;10.80;54.55;95823.13;5043367;28;20057;-60
2023/11/18 08:11:26;;;;;;;0.50;0.50;;;;;;;10.82;54.58;95848.47;5042652;28;20044;-61
2023/11/18 08:13:53;;;;;;;0.50;0.50;;;;;;;11.11;53.78;95847.19;5041213;28;20520;-62
2023/11/18 08:16:22;;;;;;;0.45;0.45;;;;;;;10.87;51.75;95840.53;5040850;28;20052;-65
2023/11/18 08:18:49;;;;;;;0.50;0.50;;;;;;;11.25;51.67;95856.22;5022939;28;20079;-63
2023/11/18 08:21:16;;;;;;;0.50;0.50;;;;;;;10.93;52.41;95896.31;5033263;28;20065;-59
2023/11/18 08:23:43;;;;;;;0.45;0.45;;;;;;;11.27;48.82;95841.94;5040718;28;20118;-65
2023/11/18 08:26:11;;;;;;;0.50;0.50;;;;;;;11.71;49.41;95839.34;5044392;28;20053;-60
2023/11/18 08:28:38;;;;;;;0.50;0.50;;;;;;;11.56;48.85;95810.06;5041325;28;20055;-64
2023/11/18 08:31:06;;;;;;;0.50;0.50;;;;;;;11.83;49.66;95853.50;5057526;28;20088;-60
2023/11/18 08:33:33;;;;;;;0.50;0.50;;;;;;;11.90;47.56;95847.13;5041139;28;20085;-58
2023/11/18 08:36:01;;;;;;;0.50;0.50;;;;;;;10.47;51.09;95850.16;5040481;28;20084;-60
2023/11/18 08:38:28;;;;;;;0.50;0.50;;;;;;;10.24;53.28;95844.25;5041319;28;20067;-61
2023/11/18 08:40:55;;;;;;;0.50;0.50;;;;;;;10.27;53.56;95817.75;5036937;28;20208;-70
2023/11/18 08:43:22;;;;;;;0.50;0.50;;;;;;;10.73;52.95;95857.22;5040594;28;20077;-62
2023/11/18 08:45:50;;;;;;;0.50;0.50;;;;;;;10.65;52.96;95861.97;5039934;28;20613;-61
2023/11/18 08:48:18;;;;;;;0.50;0.50;;;;;;;10.77;52.83;95859.94;5042094;28;20435;-62
2023/11/18 08:50:46;;;;;;;0.50;0.50;;;;;;;10.71;52.58;95867.88;5041036;28;20053;-60
2023/11/18 08:53:17;;;;;;;0.50;0.50;;;;;;;10.96;51.69;95868.59;5041272;28;20053;-67
2023/11/18 08:55:51;;;;;;;0.50;0.50;;;;;;;10.47;52.50;95819.69;5040965;28;20538;-63
2023/11/18 08:58:27;;;;;;;0.50;0.50;;;;;;;11.09;53.69;95889.16;5038894;28;20166;-61
2023/11/18 09:01:05;;;;;;;0.50;0.50;;;;;;;11.18;53.48;95908.09;5024473;28;20057;-61
2023/11/18 09:03:36;;;;;;;0.50;0.50;;;;;;;11.20;48.13;95880.78;5041977;28;20057;-69
2023/11/18 09:06:06;;;;;;;0.50;0.50;;;;;;;10.86;49.66;95818.78;5039895;28;20069;-62
2023/11/18 09:08:35;;;;;;;0.45;0.45;;;;;;;11.19;48.50;95920.78;5045893;28;20041;-62
2023/11/18 09:11:07;;;;;;;0.50;0.50;;;;;;;10.60;50.43;95870.69;5027181;28;20115;-60
2023/11/18 09:13:34;;;;;;;0.50;0.50;;;;;;;10.34;49.93;95873.88;5031051;28;20071;-62
2023/11/18 09:16:04;;;;;;;0.40;0.40;;;;;;;10.30;50.37;95859.28;5044116;28;20491;-63
2023/11/18 09:18:33;;;;;;;0.50;0.50;;;;;;;10.17;50.50;95880.22;5045597;28;20059;-62
2023/11/18 09:21:02;;;;;;;0.40;0.40;;;;;;;9.27;50.77;95765.59;5042838;28;20056;-61
2023/11/18 09:23:31;;;;;;;0.40;0.40;;;;;;;9.31;51.55;95865.84;5045964;28;20045;-62
2023/11/18 09:25:58;;;;;;;0.50;0.50;;;;;;;9.46;52.13;95875.78;5043102;28;20164;-60
2023/11/18 09:28:28;;;;;;;0.50;0.50;;;;;;;9.02;51.98;95797.91;5044178;28;20045;-54
2023/11/18 09:31:00;;;;;;;0.40;0.40;;;;;;;9.45;51.52;95810.66;5044724;28;20056;-63
2023/11/18 09:33:34;;;;;;;0.50;0.50;;;;;;;10.04;51.46;95865.19;5042462;28;20652;-62
2023/11/18 09:36:07;;;;;;;0.50;0.50;;;;;;;10.29;50.65;95849.38;5060180;28;20052;-64
2023/11/18 09:38:35;;;;;;;0.40;0.40;;;;;;;10.36;49.73;95854.91;5060109;28;20057;-63
2023/11/18 09:41:07;;;;;;;0.50;0.50;;;;;;;10.46;50.29;95858.84;5044785;28;20106;-62
2023/11/18 09:43:54;;;;;;;0.50;0.50;;;;;;;10.32;50.39;95870.72;5044470;28;20052;-64
2023/11/18 09:46:32;;;;;;;0.40;0.40;;;;;;;10.04;49.66;95834.75;5045851;28;20661;-62
2023/11/18 09:49:16;;;;;;;0.43;0.43;;;;;;;10.25;50.50;95845.03;5045847;28;20045;-62
2023/11/18 09:51:47;;;;;;;;;;;;;;;10.15;51.69;95841.09;5045188;28;20483;-63
2023/11/18 09:54:18;;;;;;;0.43;0.43;;;;;;;10.08;53.00;95846.66;5045804;28;19925;-64
2023/11/18 09:57:08;;;;;;;0.40;0.40;;;;;;;9.87;52.73;95777.47;5043675;28;20068;-63
2023/11/18 09:59:54;;;;;;;0.50;0.50;;;;;;;10.14;52.20;95806.31;5042005;28;20079;-63
2023/11/18 10:02:25;;;;;;;0.40;0.40;;;;;;;10.20;51.47;95843.47;5045046;28;20499;-63
2023/11/18 10:04:57;;;;;;;0.50;0.50;;;;;;;9.92;52.40;95813.03;5045399;28;20513;-64
2023/11/18 10:07:32;;;;;;;0.50;0.50;;;;;;;9.96;49.58;95835.13;5044031;28;20068;-63
2023/11/18 10:10:01;;;;;;;0.50;0.50;;;;;;;10.09;50.36;95830.81;5050881;28;20526;-64
2023/11/18 10:12:29;;;;;;;0.40;0.40;;;;;;;10.24;50.63;95844.25;5043395;28;20420;-62
2023/11/18 10:14:58;;;;;;;0.50;0.50;;;;;;;10.44;48.83;95845.41;5043134;28;20092;-62
2023/11/18 10:17:26;;;;;;;0.50;0.50;;;;;;;10.38;50.26;95841.47;5042990;28;20064;-63
2023/11/18 10:19:59;;;;;;;0.50;0.50;;;;;;;10.27;48.16;95824.09;5043775;28;20123;-63
2023/11/18 10:22:27;;;;;;;;;;;;;;;10.55;48.33;95812.97;5044189;28;20728;-62
2023/11/18 10:25:00;;;;;;;0.50;0.50;;;;;;;9.79;47.78;95742.72;5043504;28;19935;-63
2023/11/18 10:27:28;;;;;;;0.50;0.50;;;;;;;10.18;48.87;95820.94;5044934;28;20052;-64
2023/11/18 10:30:02;;;;;;;0.47;0.47;;;;;;;10.35;50.21;95825.63;5045144;28;20049;-63
2023/11/18 10:32:29;;;;;;;0.50;0.50;;;;;;;10.60;49.05;95815.31;5044673;28;20538;-63
2023/11/18 10:34:57;;;;;;;0.40;0.40;;;;;;;10.77;49.82;95813.66;5044747;28;20065;-64
2023/11/18 10:37:30;;;;;;;0.50;0.50;;;;;;;10.78;48.14;95770.16;5044436;28;20052;-62
2023/11/18 10:40:04;;;;;;;0.43;0.43;;;;;;;10.82;48.35;95727.38;5045040;28;20059;-62
2023/11/18 10:42:32;;;;;;;0.50;0.50;;;;;;;10.99;48.63;95792.19;5044911;28;20061;-63
2023/11/18 10:45:03;;;;;;;0.40;0.40;;;;;;;11.14;49.27;95793.72;5044910;28;20055;-62
2023/11/18 10:47:38;;;;;;;0.50;0.50;;;;;;;10.82;49.82;95787.53;5043240;28;20056;-62
2023/11/18 10:50:09;;;;;;;0.50;0.50;;;;;;;10.89;50.89;95793.81;5044351;28;20132;-64
2023/11/18 10:52:37;;;;;;;0.50;0.50;;;;;;;10.22;49.53;95704.72;5044196;28;20049;-62
2023/11/18 10:55:11;;;;;;;0.50;0.50;;;;;;;11.00;49.56;95791.78;5044082;28;20055;-63
2023/11/18 10:57:41;;;;;;;0.43;0.43;;;;;;;11.18;47.44;95777.84;5044451;28;20577;-63
2023/11/18 11:00:19;;;;;;;0.50;0.50;;;;;;;11.29;47.58;95782.13;5043962;28;20144;-64
2023/11/18 11:02:49;;;;;;;0.50;0.50;;;;;;;11.26;46.11;95712.84;5043747;28;20140;-63
2023/11/18 11:05:32;;;;;;;0.50;0.50;;;;;;;11.37;46.07;95813.38;5043586;28;20057;-65
2023/11/18 11:08:02;;;;;;;0.40;0.40;;;;;;;11.12;46.77;95807.19;5042630;28;20942;-63
2023/11/18 11:10:29;;;;;;;0.40;0.40;;;;;;;10.78;46.99;95811.69;5043944;28;20405;-64
2023/11/18 11:13:01;;;;;;;0.50;0.50;;;;;;;10.73;47.22;95813.66;5047200;28;20153;-63
2023/11/18 11:15:32;;;;;;;0.50;0.50;;;;;;;10.75;49.01;95793.13;5064219;28;20114;-63
2023/11/18 11:18:27;;;;;;;0.50;0.50;;;;;;;10.73;46.82;95781.63;5048838;28;20114;-64
2023/11/18 11:21:07;;;;;;;0.40;0.40;;;;;;;10.73;48.36;95798.25;5045678;28;20126;-63
2023/11/18 11:23:53;;;;;;;0.40;0.40;;;;;;;10.43;48.06;95794.00;5063922;28;20449;-62
2023/11/18 11:26:41;;;;;;;0.50;0.50;;;;;;;10.49;47.78;95803.47;5057343;28;20530;-63
2023/11/18 11:29:17;;;;;;;0.40;0.40;;;;;;;10.63;48.15;95803.44;5043536;28;20048;-63
2023/11/18 11:32:00;;;;;;;0.40;0.40;;;;;;;10.47;48.37;95811.38;5044227;28;20147;-64
2023/11/18 11:34:31;;;;;;;0.40;0.40;;;;;;;9.94;47.86;95794.03;5044457;28;20052;-64
2023/11/18 11:37:01;;;;;;;0.40;0.40;;;;;;;10.27;48.86;95818.56;5043789;28;20134;-63
2023/11/18 11:39:30;;;;;;;0.40;0.40;;;;;;;10.25;48.00;95853.34;5043657;28;20063;-63
2023/11/18 11:41:58;;;;;;;0.50;0.50;;;;;;;10.35;48.49;95806.25;5043444;28;20053;-63
2023/11/18 11:44:29;;;;;;;0.50;0.50;;;;;;;10.52;47.24;95797.16;5043484;28;20735;-63
2023/11/18 11:47:01;;;;;;;0.43;0.43;;;;;;;10.63;48.11;95784.06;5043313;28;20141;-63